Time;durP1;ratioP1;P1;durP2;ratioP2;P2;SDS_P1;SDS_P2;PMS_P1;PMS_P2;Temp;Humidity;BMP_temperature;BMP_pressure;BME280_temperature;BME280_humidity;BME280_pressure;Samples;Min_cycle;Max_cycle;Signal;HPM_P1;HPM_P2
2021/05/30 00:00:18;;;;;;;2.63;2.43;;;;;;;12.68;58.30;154616.03;5051662;28;20414;-87
2021/05/30 00:02:53;;;;;;;3.33;3.03;;;;;;;12.71;58.80;154623.78;5051152;28;20471;-87
2021/05/30 00:05:28;;;;;;;2.97;2.53;;;;;;;12.62;59.14;154601.78;5051374;28;20435;-88
2021/05/30 00:08:04;;;;;;;4.17;3.27;;;;;;;12.58;59.00;154590.06;5052969;28;20913;-87
2021/05/30 00:10:39;;;;;;;3.17;2.87;;;;;;;12.56;59.05;154584.91;5051617;28;20537;-88
2021/05/30 00:13:14;;;;;;;3.57;3.03;;;;;;;12.56;59.52;154584.91;5051440;28;20468;-88
2021/05/30 00:15:50;;;;;;;3.00;2.70;;;;;;;12.56;59.08;154584.91;5051058;28;20822;-87
2021/05/30 00:18:25;;;;;;;3.33;3.07;;;;;;;12.55;59.40;154582.34;5051582;28;20453;-88
2021/05/30 00:21:00;;;;;;;3.57;3.27;;;;;;;12.53;58.88;154577.09;5051551;28;20533;-88
2021/05/30 00:23:35;;;;;;;4.10;3.80;;;;;;;12.54;59.22;154579.72;5056394;28;20485;-87
2021/05/30 00:26:11;;;;;;;3.17;2.87;;;;;;;12.48;60.05;154564.16;5062506;28;20441;-87
2021/05/30 00:28:45;;;;;;;3.33;2.80;;;;;;;12.38;60.34;154539.53;5053394;28;20456;-87
2021/05/30 00:31:21;;;;;;;3.03;2.73;;;;;;;12.28;60.66;154512.31;5052262;28;20434;-87
2021/05/30 00:33:56;;;;;;;3.20;2.67;;;;;;;12.16;60.95;154482.47;5050630;28;20446;-87
2021/05/30 00:36:32;;;;;;;2.90;2.70;;;;;;;12.07;60.79;154459.16;5051243;28;20472;-87
2021/05/30 00:39:07;;;;;;;3.13;2.83;;;;;;;12.08;61.27;154463.03;5051012;28;20450;-87
2021/05/30 00:41:42;;;;;;;3.27;2.40;;;;;;;12.06;61.58;154457.84;5050950;28;20450;-88
2021/05/30 00:44:23;;;;;;;3.20;2.97;;;;;;;12.09;61.12;154465.63;5050670;28;20535;-87
2021/05/30 00:47:00;;;;;;;3.10;2.80;;;;;;;12.10;61.47;154468.19;5052191;28;20424;-87
2021/05/30 00:49:35;;;;;;;4.63;2.60;;;;;;;12.05;61.30;154453.94;5050526;28;20451;-87
2021/05/30 00:52:10;;;;;;;2.30;2.10;;;;;;;12.01;62.08;154444.91;5050768;28;20462;-87
2021/05/30 00:54:45;;;;;;;2.97;2.67;;;;;;;11.95;62.28;154429.31;5050635;28;20450;-87
2021/05/30 00:57:21;;;;;;;3.57;3.00;;;;;;;11.95;63.17;154428.00;5050742;28;20473;-87
2021/05/30 00:59:56;;;;;;;4.43;2.90;;;;;;;11.91;62.64;154418.97;5050660;28;20453;-86
2021/05/30 01:02:32;;;;;;;3.80;3.00;;;;;;;11.85;62.46;154403.41;5067234;28;20573;-87
2021/05/30 01:05:08;;;;;;;3.60;3.30;;;;;;;11.88;62.49;154411.19;5050399;28;20452;-87
2021/05/30 01:07:46;;;;;;;3.80;3.50;;;;;;;11.88;62.41;154409.88;5050655;28;20838;-87
2021/05/30 01:10:29;;;;;;;3.50;3.20;;;;;;;11.86;62.19;154405.97;5050471;28;20502;-87
2021/05/30 01:13:05;;;;;;;4.37;2.90;;;;;;;11.91;61.92;154417.66;5050649;28;20478;-87
2021/05/30 01:15:41;;;;;;;3.50;3.20;;;;;;;11.91;62.47;154418.97;5050532;28;20448;-87
2021/05/30 01:18:18;;;;;;;3.63;3.27;;;;;;;11.89;62.62;154412.44;5050763;28;20482;-87
2021/05/30 01:20:55;;;;;;;3.63;3.30;;;;;;;11.84;62.97;154400.78;5050574;28;20432;-87
2021/05/30 01:23:31;;;;;;;4.07;3.43;;;;;;;11.78;63.24;154383.97;5050558;28;20471;-87
2021/05/30 01:26:06;;;;;;;3.27;2.93;;;;;;;11.75;63.11;154376.19;5052062;28;20415;-87
2021/05/30 01:28:42;;;;;;;3.70;3.10;;;;;;;11.76;63.60;154380.06;5040676;28;20492;-87
2021/05/30 01:31:17;;;;;;;3.10;2.80;;;;;;;11.68;63.52;154359.28;5054100;28;20818;-87
2021/05/30 01:33:52;;;;;;;3.80;3.40;;;;;;;11.63;63.77;154346.31;5054439;28;20443;-87
2021/05/30 01:36:28;;;;;;;3.23;2.93;;;;;;;11.58;64.49;154333.38;5054068;28;20447;-87
2021/05/30 01:39:05;;;;;;;3.37;3.00;;;;;;;11.52;65.09;154317.81;5060476;28;20449;-86
2021/05/30 01:41:40;;;;;;;3.60;3.30;;;;;;;11.53;64.83;154320.41;5054062;28;20822;-87
2021/05/30 01:44:15;;;;;;;3.90;3.50;;;;;;;11.47;64.61;154306.16;5054152;28;20467;-87
2021/05/30 01:46:50;;;;;;;3.43;3.13;;;;;;;11.45;65.16;154300.97;5053851;28;20442;-87
2021/05/30 01:49:26;;;;;;;5.57;4.17;;;;;;;11.46;64.96;154302.28;5054206;28;20869;-87
2021/05/30 01:52:01;;;;;;;4.13;3.77;;;;;;;11.41;65.61;154290.59;5053614;28;20874;-86
2021/05/30 01:54:41;;;;;;;3.73;3.33;;;;;;;11.36;65.93;154277.63;5038355;28;20458;-87
2021/05/30 01:57:16;;;;;;;3.50;3.20;;;;;;;11.33;65.88;154268.59;5055073;28;20435;-87
2021/05/30 01:59:51;;;;;;;4.20;3.80;;;;;;;11.27;65.73;154254.34;5053735;28;20439;-87
2021/05/30 02:02:28;;;;;;;4.23;3.83;;;;;;;11.28;66.63;154255.66;5053337;28;20454;-87
2021/05/30 02:05:03;;;;;;;5.20;4.07;;;;;;;11.26;66.25;154251.75;5053478;28;20443;-86
2021/05/30 02:07:39;;;;;;;5.07;4.57;;;;;;;11.26;66.83;154250.44;5069308;28;20431;-87
2021/05/30 02:10:16;;;;;;;3.83;3.43;;;;;;;11.23;66.72;154242.66;5055126;28;20409;-87
2021/05/30 02:12:53;;;;;;;4.13;3.73;;;;;;;11.21;66.75;154237.47;5070190;28;20448;-86
2021/05/30 02:15:28;;;;;;;4.03;3.00;;;;;;;11.17;67.51;154227.16;5054414;28;20435;-86
2021/05/30 02:18:05;;;;;;;6.90;4.30;;;;;;;11.09;67.37;154206.41;5053363;28;20447;-87
2021/05/30 02:20:41;;;;;;;4.80;4.20;;;;;;;11.07;67.64;154201.25;5053327;28;20421;-87
2021/05/30 02:23:18;;;;;;;4.93;3.80;;;;;;;11.04;68.45;154193.47;5053475;28;20474;-86
2021/05/30 02:25:54;;;;;;;4.77;4.30;;;;;;;11.02;68.30;154190.84;5053306;28;20474;-86
2021/05/30 02:28:29;;;;;;;4.47;4.03;;;;;;;11.01;68.49;154188.25;5054457;28;20507;-87
2021/05/30 02:31:04;;;;;;;4.30;3.90;;;;;;;10.98;68.71;154180.53;5054080;28;20521;-86
2021/05/30 02:33:39;;;;;;;5.70;4.20;;;;;;;10.92;68.86;154164.97;5054820;28;20435;-87
2021/05/30 02:36:14;;;;;;;4.93;4.53;;;;;;;10.89;68.64;154155.88;5054347;28;20451;-86
2021/05/30 02:38:49;;;;;;;4.50;4.10;;;;;;;10.88;68.79;154154.56;5052606;28;20451;-87
2021/05/30 02:41:25;;;;;;;5.30;4.33;;;;;;;10.85;68.65;154146.84;5052843;28;20848;-86
2021/05/30 02:44:00;;;;;;;4.70;3.90;;;;;;;10.80;68.25;154132.59;5054610;28;20471;-86
2021/05/30 02:46:35;;;;;;;5.10;4.30;;;;;;;10.76;68.50;154123.53;5069479;28;20446;-86
2021/05/30 02:49:11;;;;;;;4.97;4.47;;;;;;;10.71;68.42;154110.56;5069680;28;20445;-86
2021/05/30 02:51:46;;;;;;;4.20;3.53;;;;;;;10.74;68.74;154118.34;5053714;28;20421;-86
2021/05/30 02:54:21;;;;;;;4.80;4.40;;;;;;;10.74;68.64;154118.34;5052705;28;20943;-86
2021/05/30 02:56:57;;;;;;;4.73;4.33;;;;;;;10.75;68.54;154120.91;5052637;28;20479;-86
2021/05/30 02:59:32;;;;;;;5.00;4.50;;;;;;;10.73;69.20;154115.75;5052490;28;20445;-87
2021/05/30 03:02:07;;;;;;;5.13;4.63;;;;;;;10.71;69.27;154110.56;5052625;28;20683;-86
2021/05/30 03:04:42;;;;;;;4.53;4.10;;;;;;;10.70;69.16;154107.97;5052828;28;20548;-85
2021/05/30 03:07:18;;;;;;;4.57;4.17;;;;;;;10.68;69.08;154102.78;5052671;28;20448;-86
2021/05/30 03:09:53;;;;;;;4.60;4.20;;;;;;;10.68;69.54;154102.78;5042257;28;20479;-86
2021/05/30 03:12:29;;;;;;;5.33;4.20;;;;;;;10.68;69.72;154102.78;5061488;28;20445;-86
2021/05/30 03:15:05;;;;;;;4.40;4.00;;;;;;;10.66;69.83;154096.31;5053749;28;20412;-86
2021/05/30 03:17:41;;;;;;;4.80;4.30;;;;;;;10.64;69.76;154092.47;5052190;28;20817;-86
2021/05/30 03:20:16;;;;;;;4.37;3.97;;;;;;;10.61;70.14;154084.69;5053471;28;20426;-86
2021/05/30 03:22:51;;;;;;;4.83;4.33;;;;;;;10.62;70.05;154087.25;5053404;28;20518;-86
2021/05/30 03:25:26;;;;;;;4.17;3.77;;;;;;;10.61;70.01;154083.38;5052118;28;20429;-86
2021/05/30 03:28:03;;;;;;;6.47;4.10;;;;;;;10.60;70.25;154082.06;5053525;28;20473;-86
2021/05/30 03:30:38;;;;;;;4.53;4.13;;;;;;;10.59;69.73;154079.47;5052064;28;20776;-86
2021/05/30 03:33:13;;;;;;;4.17;3.73;;;;;;;10.56;69.89;154070.44;5052010;28;20453;-86
2021/05/30 03:35:48;;;;;;;4.93;4.43;;;;;;;10.57;70.03;154073.00;5051930;28;20445;-86
2021/05/30 03:38:24;;;;;;;4.50;4.10;;;;;;;10.51;69.83;154058.75;5051589;28;20534;-86
2021/05/30 03:41:01;;;;;;;5.10;4.27;;;;;;;10.49;70.19;154053.59;5051988;28;20436;-86
2021/05/30 03:43:40;;;;;;;4.97;4.30;;;;;;;10.47;70.35;154048.41;5051762;28;20567;-85
2021/05/30 03:46:15;;;;;;;6.30;4.10;;;;;;;10.45;70.53;154043.25;5053028;28;20926;-86
2021/05/30 03:48:49;;;;;;;4.23;3.80;;;;;;;10.47;70.51;154048.41;5051855;28;20782;-85
2021/05/30 03:51:25;;;;;;;4.40;4.00;;;;;;;10.49;70.97;154053.59;5035748;28;20484;-85
2021/05/30 03:54:00;;;;;;;6.17;5.00;;;;;;;10.49;70.79;154053.59;5051987;28;20432;-85
2021/05/30 03:56:36;;;;;;;5.07;4.57;;;;;;;10.47;71.22;154047.13;5051093;28;20447;-85
2021/05/30 03:59:12;;;;;;;6.60;5.50;;;;;;;10.45;71.35;154043.25;5051649;28;20444;-86
2021/05/30 04:01:47;;;;;;;4.30;3.90;;;;;;;10.43;71.55;154036.78;5051276;28;20845;-86
2021/05/30 04:04:23;;;;;;;5.20;4.70;;;;;;;10.41;71.31;154032.88;5052554;28;20447;-86
2021/05/30 04:06:58;;;;;;;4.50;4.10;;;;;;;10.46;71.09;154044.56;5051106;28;20446;-86
2021/05/30 04:09:33;;;;;;;4.80;4.30;;;;;;;10.49;71.39;154052.28;5051392;28;20443;-86
2021/05/30 04:12:09;;;;;;;4.80;4.30;;;;;;;10.51;71.00;154058.75;5050996;28;20447;-86
2021/05/30 04:14:45;;;;;;;4.80;4.10;;;;;;;10.71;70.86;154110.56;5051326;28;20467;-86
2021/05/30 04:17:20;;;;;;;9.00;4.83;;;;;;;10.93;69.52;154166.28;5051122;28;20474;-87
2021/05/30 04:19:55;;;;;;;5.87;4.80;;;;;;;11.09;69.25;154207.72;5051117;28;20437;-86
2021/05/30 04:22:30;;;;;;;4.57;3.97;;;;;;;11.14;68.92;154220.66;5050975;28;20921;-87
2021/05/30 04:25:07;;;;;;;5.60;3.90;;;;;;;11.16;68.56;154224.53;5035696;28;20442;-86
2021/05/30 04:27:43;;;;;;;4.93;4.43;;;;;;;11.33;67.90;154268.59;5051024;28;20455;-86
2021/05/30 04:30:20;;;;;;;3.93;3.53;;;;;;;11.59;67.37;154335.97;5041752;28;20449;-86
2021/05/30 04:32:55;;;;;;;4.50;4.17;;;;;;;11.80;66.18;154390.44;5052328;28;20983;-87
2021/05/30 04:35:30;;;;;;;4.60;4.20;;;;;;;11.93;65.83;154424.16;5050774;28;20452;-87
2021/05/30 04:38:05;;;;;;;5.23;4.10;;;;;;;12.13;65.67;154475.97;5050669;28;20454;-87
2021/05/30 04:40:41;;;;;;;5.07;4.03;;;;;;;12.21;64.31;154495.41;5051235;28;20866;-87
2021/05/30 04:43:16;;;;;;;5.17;4.67;;;;;;;12.39;64.13;154540.84;5050719;28;20831;-87
2021/05/30 04:45:52;;;;;;;6.90;5.40;;;;;;;12.56;63.92;154584.91;5052073;28;20415;-88
2021/05/30 04:48:26;;;;;;;5.97;4.90;;;;;;;12.64;63.82;154605.66;5050327;28;20920;-87
2021/05/30 04:51:12;;;;;;;4.97;4.43;;;;;;;12.73;63.17;154630.28;5067609;28;20427;-87
2021/05/30 04:53:47;;;;;;;5.47;4.97;;;;;;;12.88;63.05;154666.59;5052331;28;20472;-87
2021/05/30 04:56:22;;;;;;;5.83;4.83;;;;;;;13.07;61.92;154715.97;5050769;28;20535;-87
2021/05/30 04:58:57;;;;;;;4.90;3.63;;;;;;;13.22;61.07;154756.19;5050642;28;20452;-88
2021/05/30 05:01:33;;;;;;;4.57;4.17;;;;;;;13.24;61.07;154761.34;5051998;28;20419;-88
2021/05/30 05:04:08;;;;;;;6.30;4.00;;;;;;;13.23;61.60;154757.47;5054698;28;20938;-88
2021/05/30 05:06:43;;;;;;;5.00;4.60;;;;;;;13.42;61.53;154808.06;5056078;28;20421;-88
2021/05/30 05:09:19;;;;;;;4.33;3.93;;;;;;;13.58;60.25;154847.03;5056031;28;20853;-88
2021/05/30 05:11:53;;;;;;;4.10;3.70;;;;;;;13.79;59.86;154902.78;5039327;28;20785;-88
2021/05/30 05:14:29;;;;;;;6.77;4.37;;;;;;;13.95;59.92;154944.34;5054784;28;20527;-88
2021/05/30 05:17:05;;;;;;;5.20;4.40;;;;;;;14.08;58.77;154976.84;5056007;28;20438;-88
2021/05/30 05:19:40;;;;;;;4.73;4.20;;;;;;;14.13;59.38;154988.50;5054312;28;20458;-88
2021/05/30 05:22:15;;;;;;;4.53;4.13;;;;;;;14.26;58.85;155023.56;5054425;28;20490;-88
2021/05/30 05:24:51;;;;;;;4.53;4.13;;;;;;;14.24;58.03;155018.38;5055468;28;20459;-88
2021/05/30 05:27:25;;;;;;;4.90;4.40;;;;;;;14.52;58.09;155089.84;5055566;28;20449;-88
2021/05/30 05:30:01;;;;;;;4.00;3.60;;;;;;;14.44;57.55;155069.06;5054363;28;20438;-88
2021/05/30 05:32:37;;;;;;;5.63;4.40;;;;;;;14.66;56.87;155124.91;5054420;28;20870;-89
2021/05/30 05:35:12;;;;;;;5.20;4.00;;;;;;;14.95;55.69;155201.56;5054207;28;20445;-89
2021/05/30 05:37:47;;;;;;;4.50;4.10;;;;;;;14.98;55.41;155209.38;5053565;28;20482;-88
2021/05/30 05:40:23;;;;;;;4.97;4.30;;;;;;;14.94;55.83;155197.66;5038659;28;20536;-88
2021/05/30 05:42:58;;;;;;;4.30;3.90;;;;;;;15.16;56.65;155254.81;5055280;28;21014;-88
2021/05/30 05:45:34;;;;;;;4.27;3.87;;;;;;;15.16;56.54;155254.81;5055522;28;20419;-89
2021/05/30 05:48:11;;;;;;;4.13;3.73;;;;;;;15.36;56.95;155306.78;5054503;28;20477;-89
2021/05/30 05:50:46;;;;;;;4.23;3.83;;;;;;;15.50;54.76;155343.25;5053993;28;20439;-88
2021/05/30 05:53:22;;;;;;;4.00;3.50;;;;;;;15.60;54.77;155367.91;5053858;28;20466;-88
2021/05/30 05:55:57;;;;;;;4.80;4.40;;;;;;;15.70;54.72;155393.97;5063097;28;20459;-87
2021/05/30 05:58:32;;;;;;;4.40;4.00;;;;;;;15.92;54.12;155451.13;5059609;28;20572;-88
2021/05/30 06:01:09;;;;;;;4.37;3.63;;;;;;;16.19;54.33;155521.38;5055309;28;20882;-88
2021/05/30 06:03:45;;;;;;;4.30;3.90;;;;;;;16.15;53.25;155510.94;5053696;28;21007;-89
2021/05/30 06:06:20;;;;;;;4.60;4.20;;;;;;;16.04;54.55;155482.38;5054425;28;20534;-88
2021/05/30 06:08:55;;;;;;;4.80;4.30;;;;;;;16.30;53.93;155548.66;5053746;28;20478;-88
2021/05/30 06:11:30;;;;;;;5.47;3.80;;;;;;;16.70;54.04;155652.78;5051078;28;20455;-88
2021/05/30 06:14:05;;;;;;;5.90;4.07;;;;;;;16.85;53.27;155691.81;5050600;28;20459;-89
2021/05/30 06:16:41;;;;;;;4.47;3.70;;;;;;;16.82;51.98;155684.00;5047734;28;20523;-88
2021/05/30 06:19:19;;;;;;;4.60;4.20;;;;;;;16.91;51.73;155706.13;5046373;28;20749;-88
2021/05/30 06:21:54;;;;;;;4.70;4.20;;;;;;;16.63;52.51;155634.53;5050739;28;20804;-89
2021/05/30 06:24:29;;;;;;;5.23;4.73;;;;;;;17.26;52.44;155795.91;5051180;28;20516;-88
2021/05/30 06:27:05;;;;;;;5.20;4.70;;;;;;;17.82;50.58;155940.44;5052241;28;20499;-89
2021/05/30 06:29:40;;;;;;;4.90;4.40;;;;;;;17.86;50.73;155950.84;5050962;28;20915;-88
2021/05/30 06:32:15;;;;;;;5.30;4.80;;;;;;;17.67;49.39;155902.69;5050907;28;20454;-89
2021/05/30 06:34:51;;;;;;;4.53;4.13;;;;;;;17.75;49.92;155923.50;5052160;28;20963;-89
2021/05/30 06:37:26;;;;;;;5.10;4.60;;;;;;;18.25;48.60;156053.72;5050656;28;20804;-89
2021/05/30 06:40:02;;;;;;;4.63;4.20;;;;;;;18.25;48.95;156052.41;5051746;28;20922;-89
2021/05/30 06:42:37;;;;;;;5.70;4.90;;;;;;;18.14;47.78;156025.06;5050727;28;20925;-88
2021/05/30 06:45:13;;;;;;;4.90;4.40;;;;;;;18.31;47.20;156068.06;5050235;28;20443;-89
2021/05/30 06:47:48;;;;;;;4.07;3.70;;;;;;;18.20;48.62;156039.38;5052189;28;20443;-89
2021/05/30 06:50:25;;;;;;;5.03;4.53;;;;;;;17.91;48.90;155965.16;5050524;28;20451;-89
2021/05/30 06:53:00;;;;;;;4.20;3.83;;;;;;;17.85;47.64;155949.53;5050695;28;20483;-89
2021/05/30 06:55:35;;;;;;;3.90;3.50;;;;;;;18.24;46.43;156051.09;5053339;28;20419;-89
2021/05/30 06:58:10;;;;;;;3.90;3.60;;;;;;;18.43;46.61;156099.28;5052666;28;20512;-89
2021/05/30 07:00:45;;;;;;;4.53;3.90;;;;;;;18.39;45.94;156087.59;5053897;28;20901;-89
2021/05/30 07:03:20;;;;;;;6.13;3.87;;;;;;;18.31;44.88;156066.75;5051528;28;20969;-89
2021/05/30 07:05:57;;;;;;;4.43;4.00;;;;;;;18.57;45.79;156134.53;5052329;28;20443;-89
2021/05/30 07:08:32;;;;;;;4.93;3.87;;;;;;;19.13;45.37;156280.47;5023970;28;20455;-89
2021/05/30 07:11:07;;;;;;;4.13;3.73;;;;;;;19.65;44.79;156413.44;5049089;28;20895;-89
2021/05/30 07:13:42;;;;;;;4.77;4.27;;;;;;;19.48;44.27;156369.13;5017079;28;20447;-89
2021/05/30 07:16:17;;;;;;;3.83;3.53;;;;;;;19.66;42.91;156417.38;5033894;28;20416;-89
2021/05/30 07:18:52;;;;;;;4.07;3.67;;;;;;;19.26;43.50;156314.34;5034124;28;20438;-88
2021/05/30 07:21:28;;;;;;;4.10;3.70;;;;;;;19.63;43.13;156408.22;5032180;28;20443;-89
2021/05/30 07:24:05;;;;;;;3.90;3.50;;;;;;;19.53;43.17;156382.16;5048846;28;20487;-88
2021/05/30 07:26:41;;;;;;;3.97;3.63;;;;;;;19.56;42.70;156391.31;5048008;28;20436;-88
2021/05/30 07:29:17;;;;;;;3.70;3.40;;;;;;;19.42;41.71;156356.09;5048779;28;20440;-89
2021/05/30 07:31:52;;;;;;;4.23;3.83;;;;;;;19.89;42.17;156476.03;5033274;28;20424;-89
2021/05/30 07:34:26;;;;;;;3.73;3.43;;;;;;;20.45;41.10;156622.16;5048690;28;20439;-89
2021/05/30 07:37:03;;;;;;;3.90;3.50;;;;;;;20.65;38.89;156674.31;5040493;28;20454;-89
2021/05/30 07:39:38;;;;;;;4.70;4.00;;;;;;;20.50;39.97;156633.88;5051588;28;20545;-88
2021/05/30 07:42:14;;;;;;;3.90;3.60;;;;;;;20.12;40.70;156534.72;5068565;28;20447;-88
2021/05/30 07:44:49;;;;;;;4.00;3.63;;;;;;;19.87;42.23;156472.13;5051936;28;20467;-88
2021/05/30 07:47:24;;;;;;;4.27;3.57;;;;;;;20.10;40.84;156530.78;5068586;28;20534;-88
2021/05/30 07:49:59;;;;;;;4.30;3.90;;;;;;;20.17;40.78;156549.06;5053147;28;20427;-88
2021/05/30 07:52:35;;;;;;;4.43;4.07;;;;;;;19.54;41.88;156384.78;5051634;28;20828;-89
2021/05/30 07:55:11;;;;;;;3.87;3.57;;;;;;;19.72;42.47;156431.72;5051660;28;20446;-89
2021/05/30 07:57:47;;;;;;;3.73;3.43;;;;;;;20.44;41.25;156619.53;5053239;28;20762;-88
2021/05/30 08:00:23;;;;;;;4.50;4.10;;;;;;;20.25;41.62;156570.00;5068679;28;20430;-87
2021/05/30 08:02:58;;;;;;;4.60;4.20;;;;;;;19.86;43.20;156468.19;5051505;28;20452;-88
2021/05/30 08:05:33;;;;;;;3.80;3.50;;;;;;;20.02;43.08;156509.91;5036369;28;20442;-88
2021/05/30 08:08:09;;;;;;;6.43;3.90;;;;;;;19.98;42.49;156499.50;5053062;28;20438;-88
2021/05/30 08:10:44;;;;;;;4.50;4.10;;;;;;;19.63;42.04;156408.22;5068458;28;20471;-89
2021/05/30 08:13:19;;;;;;;3.70;3.30;;;;;;;19.84;41.47;156463.00;5036578;28;20989;-89
2021/05/30 08:15:54;;;;;;;3.80;3.50;;;;;;;19.70;41.12;156426.47;5051569;28;20443;-87
2021/05/30 08:18:29;;;;;;;3.70;3.40;;;;;;;19.66;39.89;156416.06;5053010;28;20890;-87
2021/05/30 08:21:04;;;;;;;3.40;3.10;;;;;;;20.13;38.41;156538.63;5052470;28;20481;-89
2021/05/30 08:23:42;;;;;;;3.73;3.43;;;;;;;20.36;38.99;156598.66;5051325;28;20569;-87
2021/05/30 08:26:17;;;;;;;3.80;3.23;;;;;;;20.20;39.13;156555.59;5051080;28;20442;-90
2021/05/30 08:28:52;;;;;;;3.93;3.53;;;;;;;20.76;39.83;156701.72;5036120;28;20442;-87
2021/05/30 08:31:28;;;;;;;4.13;3.13;;;;;;;21.15;36.77;156802.25;5052213;28;20901;-88
2021/05/30 08:34:03;;;;;;;3.40;3.10;;;;;;;20.68;37.21;156679.56;5051323;28;20439;-88
2021/05/30 08:36:39;;;;;;;4.00;3.20;;;;;;;20.25;38.02;156568.69;5052147;28;20513;-87
2021/05/30 08:39:14;;;;;;;3.90;3.50;;;;;;;20.58;37.58;156656.06;5052557;28;20423;-88
2021/05/30 08:41:50;;;;;;;3.80;2.47;;;;;;;20.22;35.65;156562.13;5052477;28;20411;-87
2021/05/30 08:44:25;;;;;;;3.27;2.97;;;;;;;19.94;37.59;156489.06;5052972;28;20463;-91
2021/05/30 08:47:00;;;;;;;3.00;2.80;;;;;;;19.99;38.41;156502.09;5050974;28;20439;-77
2021/05/30 08:49:35;;;;;;;3.90;3.60;;;;;;;19.98;37.39;156499.50;5051290;28;20537;-76
2021/05/30 08:52:11;;;;;;;5.67;3.20;;;;;;;20.00;37.24;156504.72;5050702;28;20518;-77
2021/05/30 08:54:47;;;;;;;5.23;3.37;;;;;;;19.91;38.36;156481.22;5051935;28;20514;-76
2021/05/30 08:57:22;;;;;;;4.53;3.30;;;;;;;19.78;37.94;156447.31;5051763;28;20434;-77
2021/05/30 08:59:58;;;;;;;4.30;3.20;;;;;;;19.25;38.13;156311.72;5050675;28;20438;-77
2021/05/30 09:02:33;;;;;;;3.50;3.20;;;;;;;19.48;37.99;156370.44;5050298;28;20549;-78
2021/05/30 09:05:10;;;;;;;3.50;2.83;;;;;;;19.16;37.12;156286.97;5035107;28;20459;-78
2021/05/30 09:07:47;;;;;;;2.73;2.53;;;;;;;19.45;38.04;156362.63;5050512;28;20451;-75
2021/05/30 09:10:26;;;;;;;3.43;2.97;;;;;;;18.85;37.55;156207.47;5050817;28;20478;-90
2021/05/30 09:13:06;;;;;;;3.30;3.00;;;;;;;19.03;38.80;156254.41;5051106;28;20501;-90
2021/05/30 09:15:52;;;;;;;3.20;2.90;;;;;;;18.63;38.35;156150.16;5052457;28;20416;-91
2021/05/30 09:18:29;;;;;;;3.00;2.70;;;;;;;18.74;39.88;156178.84;5033474;28;20435;-94
2021/05/30 09:21:08;;;;;;;3.43;3.10;;;;;;;19.01;38.25;156249.16;5031576;28;20651;-90
2021/05/30 09:23:44;;;;;;;3.13;2.80;;;;;;;18.71;39.12;156172.31;5030999;28;20460;-89
2021/05/30 09:26:22;;;;;;;3.40;3.10;;;;;;;18.68;39.15;156164.50;5031841;28;20416;-87
2021/05/30 09:29:06;;;;;;;4.10;3.70;;;;;;;19.34;38.68;156335.19;5030693;28;20534;-87
2021/05/30 09:31:54;;;;;;;3.27;2.90;;;;;;;19.19;38.67;156296.13;5031917;28;20911;-87
2021/05/30 09:34:30;;;;;;;3.23;2.97;;;;;;;19.13;37.88;156280.47;5030531;28;20436;-88
2021/05/30 09:37:08;;;;;;;3.70;3.40;;;;;;;19.04;38.76;156256.97;5047802;28;20486;-89
2021/05/30 09:39:45;;;;;;;3.23;2.93;;;;;;;18.75;39.07;156182.72;5050613;28;20533;-90
2021/05/30 09:42:25;;;;;;;3.77;3.27;;;;;;;18.63;39.91;156150.16;5051918;28;20474;-90
2021/05/30 09:45:02;;;;;;;3.33;3.03;;;;;;;19.25;40.07;156311.72;5050367;28;20475;-90
2021/05/30 09:47:39;;;;;;;3.33;3.03;;;;;;;19.74;38.98;156436.91;5050447;28;20549;-89
2021/05/30 09:50:17;;;;;;;3.20;2.87;;;;;;;20.38;37.72;156603.91;5054099;28;20439;-89
2021/05/30 09:52:53;;;;;;;3.77;3.40;;;;;;;19.83;37.58;156460.41;5053875;28;20478;-90
2021/05/30 09:55:29;;;;;;;3.60;3.40;;;;;;;18.88;38.42;156214.03;5054760;28;20446;-90
2021/05/30 09:58:11;;;;;;;4.67;3.70;;;;;;;19.44;37.91;156361.31;5053872;28;20438;-89
2021/05/30 10:00:58;;;;;;;3.80;3.50;;;;;;;19.50;38.33;156375.66;5055317;28;20423;-89
2021/05/30 10:03:35;;;;;;;4.47;4.07;;;;;;;19.38;38.44;156345.66;5055154;28;20463;-90
2021/05/30 10:06:10;;;;;;;3.37;2.90;;;;;;;19.17;39.34;156290.88;5034076;28;20796;-88
2021/05/30 10:08:46;;;;;;;5.03;3.53;;;;;;;19.03;39.96;156254.41;5035449;28;20864;-88
2021/05/30 10:11:21;;;;;;;4.37;3.90;;;;;;;18.85;38.74;156208.78;5054636;28;20435;-88
2021/05/30 10:13:57;;;;;;;3.50;3.20;;;;;;;18.63;39.93;156151.47;5053946;28;20793;-89
2021/05/30 10:16:33;;;;;;;4.17;3.77;;;;;;;18.50;39.48;156116.31;5053755;28;20447;-89
2021/05/30 10:19:10;;;;;;;3.57;3.27;;;;;;;18.57;40.00;156134.53;5053868;28;20443;-90
2021/05/30 10:21:47;;;;;;;3.90;3.60;;;;;;;18.33;40.50;156071.94;5053933;28;20459;-90
2021/05/30 10:24:22;;;;;;;3.87;3.47;;;;;;;18.13;40.86;156022.50;5053677;28;20906;-90
2021/05/30 10:27:11;;;;;;;3.50;3.20;;;;;;;17.99;41.07;155984.69;5054334;28;20525;-91
2021/05/30 10:30:16;;;;;;;3.53;3.23;;;;;;;18.82;41.00;156199.69;5055246;28;20418;-91
2021/05/30 10:33:10;;;;;;;4.00;3.60;;;;;;;18.50;40.99;156116.31;5056239;28;20443;-93
2021/05/30 10:35:47;;;;;;;3.60;3.30;;;;;;;17.70;42.22;155910.50;5054812;28;20445;-90
2021/05/30 10:38:39;;;;;;;3.50;3.20;;;;;;;17.73;41.66;155918.31;5056079;28;20470;-91
2021/05/30 10:41:15;;;;;;;3.80;3.43;;;;;;;17.68;42.47;155905.28;5052232;28;20425;-91
2021/05/30 10:43:50;;;;;;;3.83;3.07;;;;;;;18.16;41.60;156030.25;5053935;28;20560;-92
2021/05/30 10:46:27;;;;;;;4.10;3.50;;;;;;;18.20;41.76;156040.69;5053538;28;20901;-90
2021/05/30 10:49:06;;;;;;;3.93;3.53;;;;;;;18.27;41.03;156058.91;5070409;28;20450;-91
2021/05/30 10:51:45;;;;;;;5.43;3.37;;;;;;;18.17;41.82;156032.88;5052674;28;20797;-90
2021/05/30 10:54:20;;;;;;;4.43;4.03;;;;;;;17.85;41.83;155949.53;5053057;28;20913;-90
2021/05/30 10:56:56;;;;;;;4.17;2.90;;;;;;;18.07;40.53;156006.84;5052811;28;20443;-92
2021/05/30 10:59:37;;;;;;;3.60;3.30;;;;;;;18.12;41.54;156018.56;5031993;28;20443;-91
2021/05/30 11:02:13;;;;;;;4.47;3.97;;;;;;;18.10;41.04;156014.66;5050954;28;20458;-90
2021/05/30 11:04:48;;;;;;;3.20;2.90;;;;;;;17.99;40.86;155986.00;5051140;28;20481;-89
2021/05/30 11:07:39;;;;;;;3.67;3.30;;;;;;;17.96;39.87;155978.19;5052555;28;20506;-90
2021/05/30 11:10:18;;;;;;;3.57;3.27;;;;;;;17.79;40.77;155933.91;5054783;28;20511;-92
2021/05/30 11:12:55;;;;;;;4.63;3.50;;;;;;;17.62;40.21;155890.97;5052812;28;20433;-90
2021/05/30 11:15:31;;;;;;;3.80;3.50;;;;;;;17.81;40.71;155939.16;5053524;28;20432;-91
2021/05/30 11:18:07;;;;;;;4.13;3.27;;;;;;;18.20;38.64;156039.38;5053008;28;20454;-91
2021/05/30 11:20:47;;;;;;;4.33;3.20;;;;;;;18.32;39.11;156069.38;5054530;28;20449;-92
2021/05/30 11:23:22;;;;;;;4.37;3.40;;;;;;;18.57;37.21;156134.53;5052403;28;20793;-93
2021/05/30 11:25:57;;;;;;;6.70;3.77;;;;;;;18.62;38.32;156148.84;5055488;28;20437;-91
2021/05/30 11:28:32;;;;;;;3.57;3.27;;;;;;;18.76;38.35;156184.03;5056775;28;20437;-90
2021/05/30 11:31:07;;;;;;;4.20;3.80;;;;;;;18.21;38.37;156043.28;5054540;28;20849;-91
2021/05/30 11:33:45;;;;;;;4.07;3.67;;;;;;;18.03;39.63;155996.41;5056191;28;20437;-90
2021/05/30 11:36:29;;;;;;;4.70;4.03;;;;;;;18.31;39.33;156066.75;5056230;28;20477;-90
2021/05/30 11:39:09;;;;;;;3.30;3.00;;;;;;;18.25;38.26;156052.41;5054627;28;20548;-88
2021/05/30 11:41:47;;;;;;;3.53;2.97;;;;;;;18.69;38.20;156165.81;5054009;28;20431;-88
2021/05/30 11:44:23;;;;;;;3.77;3.47;;;;;;;18.42;36.99;156096.72;5066113;28;20459;-88
2021/05/30 11:47:00;;;;;;;6.00;3.77;;;;;;;18.17;36.49;156032.88;5067187;28;20418;-92
2021/05/30 11:49:38;;;;;;;3.50;3.20;;;;;;;18.44;37.39;156100.59;5067847;28;20426;-89
2021/05/30 11:52:16;;;;;;;3.27;2.97;;;;;;;18.64;37.51;156152.75;5052223;28;20485;-89
2021/05/30 11:54:52;;;;;;;3.83;3.43;;;;;;;18.86;37.06;156210.09;5051852;28;20532;-89
2021/05/30 11:57:28;;;;;;;4.23;3.83;;;;;;;18.83;38.13;156203.56;5051947;28;20446;-90
2021/05/30 12:00:06;;;;;;;5.10;3.20;;;;;;;18.59;37.46;156141.03;5052269;28;20449;-89
2021/05/30 12:02:51;;;;;;;3.67;3.33;;;;;;;18.68;36.76;156163.19;5016737;28;20470;-92
2021/05/30 12:05:27;;;;;;;3.90;3.57;;;;;;;18.68;36.85;156163.19;5031949;28;20475;-89